Gretna, South Dakota
Current Conditions -  °F | °C
As of 7:53 AM on Sunday 23 Nov 2014 (Local Time) from KABR Reporting Station
Overcast Overcast  
Wind Chill: 30°   Ceiling: 10000
Heat Index: 39°   Visibility: 10mi
Dew Point: 32°   Wind: 16mph
Humidity: 76%   Direction: 290°WNW
Pressure: 29.49"   Gusts: NA
Location:  45.4011°N, 99.3273°W
Report Text: KABR 231353Z AUTO 29014KT 10SM OVC100 04/00 A2949 RMK AO2 SLP998 T00390000
Loading
Personal Weather Stations






























Interactive Weather Map New forecast layout! Learn more

10-Day Weather Forecast

Advertisements
Track Severe Weather on mobile